Time;durP1;ratioP1;P1;durP2;ratioP2;P2;SDS_P1;SDS_P2;PMS_P1;PMS_P2;Temp;Humidity;BMP_temperature;BMP_pressure;BME280_temperature;BME280_humidity;BME280_pressure;Samples;Min_cycle;Max_cycle;Signal;HPM_P1;HPM_P2
2021/06/09 00:00:31;;;;;;;25.33;16.20;;;;;;;;;;5061249;28;20104;-90
2021/06/09 00:02:56;;;;;;;24.00;15.23;;;;;;;;;;5067760;28;20049;-90
2021/06/09 00:05:21;;;;;;;27.90;17.02;;;;;;;;;;5059235;28;20009;-90
2021/06/09 00:07:46;;;;;;;21.52;15.73;;;;;;;;;;5058468;28;20034;-90
2021/06/09 00:10:12;;;;;;;23.13;15.13;;;;;;;;;;5066831;28;20028;-90
2021/06/09 00:12:37;;;;;;;26.48;16.02;;;;;;;;;;5051881;28;20035;-90
2021/06/09 00:15:04;;;;;;;29.75;17.60;;;;;;;;;;5068715;28;20024;-90
2021/06/09 00:17:29;;;;;;;28.63;17.75;;;;;;;;;;5062529;28;20021;-90
2021/06/09 00:19:54;;;;;;;26.60;18.00;;;;;;;;;;5051493;28;20020;-90
2021/06/09 00:22:20;;;;;;;25.20;17.65;;;;;;;;;;5058448;28;20103;-90
2021/06/09 00:24:45;;;;;;;25.58;17.55;;;;;;;;;;5059908;28;20478;-90
2021/06/09 00:27:11;;;;;;;27.35;18.15;;;;;;;;;;5065313;28;20026;-90
2021/06/09 00:29:37;;;;;;;25.00;17.95;;;;;;;;;;5051240;28;20025;-90
2021/06/09 00:32:02;;;;;;;28.58;17.52;;;;;;;;;;5068473;28;20343;-89
2021/06/09 00:34:28;;;;;;;26.23;17.25;;;;;;;;;;5071353;28;20020;-89
2021/06/09 00:36:53;;;;;;;23.42;16.80;;;;;;;;;;5071297;28;20020;-89
2021/06/09 00:39:18;;;;;;;24.33;16.25;;;;;;;;;;5068107;28;20444;-89
2021/06/09 00:41:43;;;;;;;28.45;17.40;;;;;;;;;;5064165;28;20017;-89
2021/06/09 00:44:09;;;;;;;28.02;17.10;;;;;;;;;;5073544;28;20032;-89
2021/06/09 00:46:36;;;;;;;23.92;16.85;;;;;;;;;;5076011;28;20481;-89
2021/06/09 00:49:01;;;;;;;25.17;17.20;;;;;;;;;;5059221;28;20025;-89
2021/06/09 00:51:26;;;;;;;26.95;18.20;;;;;;;;;;5073534;28;20027;-90
2021/06/09 00:54:13;;;;;;;27.60;17.35;;;;;;;;;;5064223;28;20066;-89
2021/06/09 00:56:38;;;;;;;23.85;17.05;;;;;;;;;;5075000;28;20032;-89
2021/06/09 00:59:03;;;;;;;26.75;18.17;;;;;;;;;;5063320;28;20021;-90
2021/06/09 01:01:29;;;;;;;26.52;18.75;;;;;;;;;;5055847;28;20150;-89
2021/06/09 01:03:55;;;;;;;31.25;19.15;;;;;;;;;;5054816;28;20017;-89
2021/06/09 01:06:21;;;;;;;26.13;19.23;;;;;;;;;;5069813;28;20021;-90
2021/06/09 01:08:47;;;;;;;37.28;20.05;;;;;;;;;;5067022;28;20423;-89
2021/06/09 01:11:13;;;;;;;27.23;19.90;;;;;;;;;;5067993;28;20033;-89
2021/06/09 01:13:38;;;;;;;37.45;18.15;;;;;;;;;;5060165;28;20097;-89
2021/06/09 01:16:04;;;;;;;23.33;18.13;;;;;;;;;;5074324;28;20016;-89
2021/06/09 01:18:29;;;;;;;24.65;17.65;;;;;;;;;;5070968;28;20464;-89
2021/06/09 01:20:55;;;;;;;27.75;18.40;;;;;;;;;;5063882;28;20504;-89
2021/06/09 01:23:20;;;;;;;25.92;17.35;;;;;;;;;;5075503;28;20039;-89
2021/06/09 01:25:47;;;;;;;26.98;17.45;;;;;;;;;;5074350;28;20020;-89
2021/06/09 01:28:12;;;;;;;31.35;19.45;;;;;;;;;;5061874;28;20032;-89
2021/06/09 01:30:38;;;;;;;23.65;17.02;;;;;;;;;;5073478;28;20028;-89
2021/06/09 01:33:04;;;;;;;26.40;16.60;;;;;;;;;;5059520;28;20020;-89
2021/06/09 01:35:30;;;;;;;28.08;18.05;;;;;;;;;;5054089;28;20082;-89
2021/06/09 01:37:55;;;;;;;23.40;16.75;;;;;;;;;;5053455;28;20383;-88
2021/06/09 01:40:21;;;;;;;25.13;16.80;;;;;;;;;;5053707;28;20463;-89
2021/06/09 01:42:48;;;;;;;28.90;18.27;;;;;;;;;;5053818;28;20021;-88
2021/06/09 01:45:15;;;;;;;27.52;17.83;;;;;;;;;;5053791;28;20147;-89
2021/06/09 01:47:40;;;;;;;29.42;18.42;;;;;;;;;;5053576;28;20021;-89
2021/06/09 01:50:07;;;;;;;27.08;17.92;;;;;;;;;;5052933;28;20025;-89
2021/06/09 01:52:32;;;;;;;25.00;17.05;;;;;;;;;;5053660;28;20051;-90
2021/06/09 01:54:59;;;;;;;26.75;17.20;;;;;;;;;;5053693;28;20033;-89
2021/06/09 01:57:25;;;;;;;26.13;17.27;;;;;;;;;;5054911;28;20461;-89
2021/06/09 01:59:50;;;;;;;24.20;17.15;;;;;;;;;;5054550;28;20024;-89
2021/06/09 02:02:16;;;;;;;24.92;17.00;;;;;;;;;;5054502;28;20021;-88
2021/06/09 02:04:41;;;;;;;26.40;17.95;;;;;;;;;;5053542;28;20044;-89
2021/06/09 02:07:07;;;;;;;32.60;19.55;;;;;;;;;;5052934;28;20274;-89
2021/06/09 02:09:33;;;;;;;32.58;21.40;;;;;;;;;;5053328;28;20123;-89
2021/06/09 02:11:58;;;;;;;29.70;20.30;;;;;;;;;;5053108;28;20533;-89
2021/06/09 02:14:23;;;;;;;25.80;19.10;;;;;;;;;;5054476;28;20109;-89
2021/06/09 02:16:52;;;;;;;29.27;19.90;;;;;;;;;;5053899;28;20471;-89
2021/06/09 02:19:17;;;;;;;25.75;19.65;;;;;;;;;;5054291;28;20324;-89
2021/06/09 02:21:43;;;;;;;29.02;20.05;;;;;;;;;;5052747;28;20477;-89
2021/06/09 02:24:09;;;;;;;29.67;20.38;;;;;;;;;;5053083;28;20025;-89
2021/06/09 02:26:35;;;;;;;30.75;21.55;;;;;;;;;;5052839;28;20551;-89
2021/06/09 02:29:01;;;;;;;26.35;19.00;;;;;;;;;;5052863;28;20021;-90
2021/06/09 02:31:26;;;;;;;27.65;19.90;;;;;;;;;;5052880;28;20025;-89
2021/06/09 02:33:52;;;;;;;30.67;20.40;;;;;;;;;;5052962;28;20042;-90
2021/06/09 02:36:17;;;;;;;32.45;19.10;;;;;;;;;;5052785;28;20484;-89
2021/06/09 02:38:43;;;;;;;29.52;20.58;;;;;;;;;;5054075;28;20025;-90
2021/06/09 02:41:09;;;;;;;31.63;20.13;;;;;;;;;;5054027;28;20017;-89
2021/06/09 02:43:34;;;;;;;31.75;20.73;;;;;;;;;;5052692;28;20112;-89
2021/06/09 02:46:08;;;;;;;29.92;20.77;;;;;;;;;;5052590;28;20028;-89
2021/06/09 02:48:34;;;;;;;33.30;20.80;;;;;;;;;;5052508;28;20052;-89
2021/06/09 02:51:01;;;;;;;31.38;21.48;;;;;;;;;;5052509;28;20013;-89
2021/06/09 02:53:29;;;;;;;30.80;21.10;;;;;;;;;;5052478;28;20009;-89
2021/06/09 02:56:12;;;;;;;27.85;19.98;;;;;;;;;;5053899;28;20032;-89
2021/06/09 02:58:46;;;;;;;30.50;19.98;;;;;;;;;;5053798;28;20024;-89
2021/06/09 03:01:30;;;;;;;30.40;19.88;;;;;;;;;;5051699;28;20045;-89
2021/06/09 03:04:16;;;;;;;29.52;19.20;;;;;;;;;;5085952;28;20021;-90
2021/06/09 03:06:41;;;;;;;32.50;20.35;;;;;;;;;;5039516;28;20013;-89
2021/06/09 03:09:10;;;;;;;29.83;19.95;;;;;;;;;;5085731;28;20499;-89
2021/06/09 03:11:45;;;;;;;28.52;19.55;;;;;;;;;;5051835;28;20027;-89
2021/06/09 03:17:00;;;;;;;28.33;19.80;;;;;;;;;;5053812;28;20036;-89
2021/06/09 03:19:38;;;;;;;26.85;19.08;;;;;;;;;;5052271;28;20113;-90
2021/06/09 03:22:13;;;;;;;32.13;20.17;;;;;;;;;;5039424;28;20103;-90
2021/06/09 03:24:40;;;;;;;28.75;19.95;;;;;;;;;;5053143;28;20029;-89
2021/06/09 03:27:15;;;;;;;29.25;19.50;;;;;;;;;;5053016;28;20025;-89
2021/06/09 03:29:50;;;;;;;32.70;19.58;;;;;;;;;;5052940;28;20024;-89
2021/06/09 03:32:19;;;;;;;25.15;18.40;;;;;;;;;;5052002;28;20009;-89
2021/06/09 03:34:47;;;;;;;28.40;19.45;;;;;;;;;;5051696;28;20048;-88
2021/06/09 03:37:16;;;;;;;27.55;17.58;;;;;;;;;;5051905;28;20009;-89
2021/06/09 03:39:43;;;;;;;29.08;19.00;;;;;;;;;;5051745;28;20017;-89
2021/06/09 03:42:11;;;;;;;27.35;19.33;;;;;;;;;;5052597;28;20082;-89
2021/06/09 03:44:38;;;;;;;29.30;19.70;;;;;;;;;;5051665;28;20543;-89
2021/06/09 03:47:04;;;;;;;28.10;18.25;;;;;;;;;;5051849;28;20028;-89
2021/06/09 03:49:31;;;;;;;32.38;18.05;;;;;;;;;;5051632;28;20025;-89
2021/06/09 03:51:56;;;;;;;33.10;21.13;;;;;;;;;;5052736;28;20021;-89
2021/06/09 03:54:22;;;;;;;30.67;19.63;;;;;;;;;;5051458;28;20028;-89
2021/06/09 03:56:48;;;;;;;30.20;20.20;;;;;;;;;;5051414;28;20017;-89
2021/06/09 03:59:14;;;;;;;30.90;18.23;;;;;;;;;;5051597;28;20110;-89
2021/06/09 04:01:40;;;;;;;34.05;18.83;;;;;;;;;;5051535;28;20076;-89
2021/06/09 04:04:07;;;;;;;43.88;19.42;;;;;;;;;;5051552;28;20116;-89
2021/06/09 04:06:33;;;;;;;26.92;18.85;;;;;;;;;;5051000;28;20110;-89
2021/06/09 04:09:01;;;;;;;28.77;20.25;;;;;;;;;;5052462;28;20071;-89
2021/06/09 04:11:27;;;;;;;32.42;20.38;;;;;;;;;;5051938;28;20112;-89
2021/06/09 04:13:53;;;;;;;28.02;19.80;;;;;;;;;;5056653;28;20017;-89
2021/06/09 04:16:19;;;;;;;26.58;19.25;;;;;;;;;;5055297;28;20111;-89
2021/06/09 04:18:44;;;;;;;31.63;20.70;;;;;;;;;;5055270;28;20120;-89
2021/06/09 04:21:10;;;;;;;37.45;21.77;;;;;;;;;;5055018;28;20051;-89
2021/06/09 04:23:36;;;;;;;29.40;20.85;;;;;;;;;;5055224;28;20020;-89
2021/06/09 04:26:02;;;;;;;31.08;20.65;;;;;;;;;;5055215;28;20028;-89
2021/06/09 04:28:27;;;;;;;28.45;20.08;;;;;;;;;;5054757;28;20036;-89
2021/06/09 04:30:52;;;;;;;27.05;19.63;;;;;;;;;;5055131;28;20100;-88
2021/06/09 04:33:18;;;;;;;30.35;19.75;;;;;;;;;;5055152;28;20020;-89
2021/06/09 04:35:45;;;;;;;26.90;19.52;;;;;;;;;;5056328;28;20024;-89
2021/06/09 04:38:14;;;;;;;30.35;19.38;;;;;;;;;;5055943;28;20024;-89
2021/06/09 04:40:39;;;;;;;29.77;20.38;;;;;;;;;;5054879;28;20020;-89
2021/06/09 04:43:04;;;;;;;38.10;21.63;;;;;;;;;;5055087;28;20039;-89
2021/06/09 04:45:30;;;;;;;37.38;24.77;;;;;;;;;;5054722;28;20024;-88
2021/06/09 04:47:55;;;;;;;39.65;25.75;;;;;;;;;;5055144;28;20039;-89
2021/06/09 04:50:22;;;;;;;42.33;24.95;;;;;;;;;;5054813;28;20048;-89
2021/06/09 04:52:48;;;;;;;46.15;26.67;;;;;;;;;;5054332;28;20013;-89
2021/06/09 04:55:14;;;;;;;45.38;27.48;;;;;;;;;;5054636;28;20376;-89
2021/06/09 04:57:40;;;;;;;43.78;29.13;;;;;;;;;;5054523;28;20017;-89
2021/06/09 05:00:07;;;;;;;47.50;29.20;;;;;;;;;;5054561;28;20042;-88
2021/06/09 05:02:32;;;;;;;48.70;29.08;;;;;;;;;;5054228;28;20025;-88
2021/06/09 05:04:57;;;;;;;44.13;29.40;;;;;;;;;;5054387;28;20476;-89
2021/06/09 05:07:23;;;;;;;48.75;28.73;;;;;;;;;;5054308;28;20059;-89
2021/06/09 05:09:48;;;;;;;46.45;29.77;;;;;;;;;;5054566;28;20413;-89
2021/06/09 05:12:26;;;;;;;45.05;28.17;;;;;;;;;;5054483;28;20025;-89
2021/06/09 05:14:54;;;;;;;44.05;28.42;;;;;;;;;;5055338;28;20024;-89
2021/06/09 05:17:25;;;;;;;47.00;27.98;;;;;;;;;;5054284;28;20017;-89
2021/06/09 05:19:51;;;;;;;46.70;29.55;;;;;;;;;;5055423;28;20349;-89
2021/06/09 05:22:21;;;;;;;45.20;28.05;;;;;;;;;;5054184;28;20028;-89
2021/06/09 05:24:47;;;;;;;45.20;28.48;;;;;;;;;;5053446;28;20025;-89
2021/06/09 05:27:15;;;;;;;42.90;27.33;;;;;;;;;;5053932;28;20100;-89
2021/06/09 05:29:42;;;;;;;45.80;29.00;;;;;;;;;;5053826;28;20017;-89
2021/06/09 05:32:08;;;;;;;43.88;28.25;;;;;;;;;;5053521;28;20520;-89
2021/06/09 05:34:35;;;;;;;48.45;28.52;;;;;;;;;;5054111;28;20013;-89
2021/06/09 05:37:01;;;;;;;44.95;29.02;;;;;;;;;;5055447;28;20096;-89
2021/06/09 05:39:26;;;;;;;50.95;29.33;;;;;;;;;;5053885;28;20460;-89
2021/06/09 05:41:52;;;;;;;47.60;29.27;;;;;;;;;;5053658;28;20048;-88
2021/06/09 05:44:17;;;;;;;44.60;29.65;;;;;;;;;;5053451;28;20029;-89
2021/06/09 05:46:46;;;;;;;50.13;28.23;;;;;;;;;;5053803;28;20028;-89
2021/06/09 05:49:21;;;;;;;41.72;27.60;;;;;;;;;;5053523;28;20464;-89
2021/06/09 05:51:48;;;;;;;43.13;27.90;;;;;;;;;;5053617;28;20024;-89
2021/06/09 05:54:13;;;;;;;44.45;28.17;;;;;;;;;;5053221;28;20017;-89
2021/06/09 05:56:39;;;;;;;50.72;29.27;;;;;;;;;;5053448;28;20028;-89
2021/06/09 05:59:04;;;;;;;46.15;29.50;;;;;;;;;;5053128;28;20104;-89
2021/06/09 06:01:30;;;;;;;45.33;28.95;;;;;;;;;;5053453;28;20094;-89
2021/06/09 06:03:55;;;;;;;48.70;29.48;;;;;;;;;;5053167;28;20380;-88
2021/06/09 06:06:21;;;;;;;48.25;31.08;;;;;;;;;;5054120;28;20028;-89
2021/06/09 06:08:47;;;;;;;50.53;30.40;;;;;;;;;;5053162;28;20477;-88
2021/06/09 06:11:13;;;;;;;48.95;30.52;;;;;;;;;;5052210;28;20025;-88
2021/06/09 06:13:39;;;;;;;50.47;31.08;;;;;;;;;;5052426;28;20017;-89
2021/06/09 06:16:05;;;;;;;46.78;30.27;;;;;;;;;;5051648;28;20029;-88
2021/06/09 06:18:34;;;;;;;40.28;24.25;;;;;;;;;;5052291;28;20070;-88
2021/06/09 06:21:00;;;;;;;47.40;29.33;;;;;;;;;;5052876;28;20464;-89
2021/06/09 06:23:26;;;;;;;44.47;27.38;;;;;;;;;;5052698;28;20096;-89
2021/06/09 06:25:52;;;;;;;42.67;28.67;;;;;;;;;;5053574;28;20471;-89
2021/06/09 06:28:17;;;;;;;50.13;29.65;;;;;;;;;;5052182;28;20032;-88
2021/06/09 06:30:42;;;;;;;45.85;30.25;;;;;;;;;;5052408;28;20352;-89
2021/06/09 06:33:08;;;;;;;46.88;30.10;;;;;;;;;;5052595;28;20086;-88
2021/06/09 06:35:34;;;;;;;45.08;29.38;;;;;;;;;;5051329;28;20028;-88
2021/06/09 06:37:59;;;;;;;48.13;30.23;;;;;;;;;;5052390;28;20426;-89
2021/06/09 06:40:27;;;;;;;43.80;29.35;;;;;;;;;;5052054;28;20026;-88
2021/06/09 06:42:53;;;;;;;48.55;30.55;;;;;;;;;;5053516;28;20179;-89
2021/06/09 06:45:19;;;;;;;49.83;30.48;;;;;;;;;;5052371;28;20056;-89
2021/06/09 06:47:45;;;;;;;42.65;28.15;;;;;;;;;;5051844;28;20024;-89
2021/06/09 06:50:11;;;;;;;48.85;28.75;;;;;;;;;;5053605;28;20025;-88
2021/06/09 06:52:36;;;;;;;44.40;26.80;;;;;;;;;;5053069;28;20009;-88
2021/06/09 06:55:03;;;;;;;51.78;32.08;;;;;;;;;;5052719;28;20027;-89
2021/06/09 06:57:29;;;;;;;44.00;27.70;;;;;;;;;;5051934;28;20056;-89
2021/06/09 06:59:55;;;;;;;51.10;30.63;;;;;;;;;;5052333;28;20044;-89
2021/06/09 07:02:20;;;;;;;46.38;27.90;;;;;;;;;;5052509;28;20104;-89
2021/06/09 07:04:45;;;;;;;54.88;30.77;;;;;;;;;;5051959;28;20021;-88
2021/06/09 07:07:12;;;;;;;48.95;31.33;;;;;;;;;;5051981;28;20013;-89
2021/06/09 07:09:37;;;;;;;44.00;27.13;;;;;;;;;;5051843;28;20052;-89
2021/06/09 07:12:03;;;;;;;59.28;35.33;;;;;;;;;;5052323;28;20028;-90
2021/06/09 07:14:28;;;;;;;50.50;30.63;;;;;;;;;;5051961;28;20096;-89
2021/06/09 07:16:54;;;;;;;56.22;33.72;;;;;;;;;;5051804;28;20553;-89
2021/06/09 07:19:20;;;;;;;54.90;33.28;;;;;;;;;;5053758;28;20020;-89
2021/06/09 07:21:45;;;;;;;53.53;32.78;;;;;;;;;;5051806;28;20103;-89
2021/06/09 07:24:10;;;;;;;52.70;32.83;;;;;;;;;;5051992;28;20033;-89
2021/06/09 07:26:38;;;;;;;54.88;35.55;;;;;;;;;;5051659;28;20083;-90
2021/06/09 07:29:04;;;;;;;55.33;33.67;;;;;;;;;;5053026;28;20025;-88
2021/06/09 07:31:34;;;;;;;62.17;36.30;;;;;;;;;;5045667;28;20021;-88
2021/06/09 07:33:59;;;;;;;58.95;36.50;;;;;;;;;;5052216;28;20016;-88
2021/06/09 07:36:29;;;;;;;57.28;35.88;;;;;;;;;;5050905;28;20104;-89
2021/06/09 07:38:59;;;;;;;57.33;32.75;;;;;;;;;;5050914;28;20116;-88
2021/06/09 07:41:26;;;;;;;66.15;37.60;;;;;;;;;;5050805;28;20024;-87
2021/06/09 07:43:51;;;;;;;56.25;33.30;;;;;;;;;;5051112;28;20032;-89
2021/06/09 07:46:19;;;;;;;61.78;38.80;;;;;;;;;;5050881;28;20024;-89
2021/06/09 07:48:48;;;;;;;71.28;38.63;;;;;;;;;;5051358;28;20078;-88
2021/06/09 07:51:14;;;;;;;74.55;41.50;;;;;;;;;;5046974;28;20048;-88
2021/06/09 07:53:40;;;;;;;75.63;41.28;;;;;;;;;;5050833;28;20072;-87
2021/06/09 07:56:06;;;;;;;79.65;43.97;;;;;;;;;;5050908;28;20020;-88
2021/06/09 07:58:33;;;;;;;74.97;41.67;;;;;;;;;;5051408;28;20491;-88
2021/06/09 08:00:59;;;;;;;75.45;41.22;;;;;;;;;;5050340;28;20608;-88
2021/06/09 08:03:25;;;;;;;73.85;38.80;;;;;;;;;;5050816;28;20465;-88
2021/06/09 08:05:51;;;;;;;79.10;43.45;;;;;;;;;;5050614;28;20024;-89
2021/06/09 08:08:16;;;;;;;70.85;40.00;;;;;;;;;;5050535;28;20036;-89
2021/06/09 08:10:42;;;;;;;66.68;36.05;;;;;;;;;;5051194;28;20472;-89
2021/06/09 08:13:09;;;;;;;77.10;40.45;;;;;;;;;;5051373;28;20021;-90
2021/06/09 08:15:34;;;;;;;66.63;38.85;;;;;;;;;;5052618;28;20092;-89
2021/06/09 08:17:59;;;;;;;70.07;38.88;;;;;;;;;;5052492;28;20048;-89
2021/06/09 08:20:25;;;;;;;70.00;36.42;;;;;;;;;;5052268;28;20024;-89
2021/06/09 08:22:50;;;;;;;75.93;38.22;;;;;;;;;;5056369;28;20025;-89
2021/06/09 08:25:23;;;;;;;72.47;42.38;;;;;;;;;;5051644;28;20017;-89
2021/06/09 08:27:52;;;;;;;81.30;46.83;;;;;;;;;;5057417;28;20032;-88
2021/06/09 08:30:18;;;;;;;80.40;41.65;;;;;;;;;;5050816;28;20049;-88
2021/06/09 08:32:44;;;;;;;81.20;38.97;;;;;;;;;;5050446;28;20017;-88
2021/06/09 08:35:09;;;;;;;63.28;32.75;;;;;;;;;;5052487;28;20016;-88
2021/06/09 08:37:35;;;;;;;67.88;36.55;;;;;;;;;;5051028;28;20139;-88
2021/06/09 08:40:00;;;;;;;66.75;36.03;;;;;;;;;;5051188;28;20028;-88
2021/06/09 08:42:26;;;;;;;63.05;35.55;;;;;;;;;;5052126;28;20068;-89
2021/06/09 08:44:52;;;;;;;63.15;36.05;;;;;;;;;;5050872;28;20468;-88
2021/06/09 08:47:18;;;;;;;65.03;34.42;;;;;;;;;;5051060;28;20078;-88
2021/06/09 08:49:44;;;;;;;65.13;36.03;;;;;;;;;;5052644;28;20048;-89
2021/06/09 08:52:10;;;;;;;63.30;36.20;;;;;;;;;;5051130;28;20017;-88
2021/06/09 08:54:36;;;;;;;61.63;32.47;;;;;;;;;;5051064;28;20017;-89
2021/06/09 08:57:01;;;;;;;61.08;34.35;;;;;;;;;;5051189;28;20109;-89
2021/06/09 08:59:27;;;;;;;62.15;34.08;;;;;;;;;;5052998;28;20104;-89
2021/06/09 09:01:52;;;;;;;60.50;32.38;;;;;;;;;;5054044;28;20481;-88
2021/06/09 09:04:18;;;;;;;62.13;30.48;;;;;;;;;;5054504;28;20113;-88
2021/06/09 09:06:43;;;;;;;55.90;30.45;;;;;;;;;;5054790;28;20028;-88
2021/06/09 09:09:08;;;;;;;50.70;28.58;;;;;;;;;;5054526;28;20486;-88
2021/06/09 09:11:34;;;;;;;57.55;31.80;;;;;;;;;;5055395;28;20441;-88
2021/06/09 09:13:59;;;;;;;45.30;25.38;;;;;;;;;;5054384;28;20109;-88
2021/06/09 09:16:25;;;;;;;60.90;33.10;;;;;;;;;;5053752;28;20100;-89
2021/06/09 09:21:40;;;;;;;49.63;29.40;;;;;;;;;;5055382;28;20032;-88
2021/06/09 09:24:09;;;;;;;55.17;29.92;;;;;;;;;;5087477;28;20029;-88
2021/06/09 09:26:35;;;;;;;54.10;31.25;;;;;;;;;;5053817;28;20021;-88
2021/06/09 09:29:07;;;;;;;62.88;32.17;;;;;;;;;;5053989;28;20029;-88
2021/06/09 09:31:43;;;;;;;54.60;30.42;;;;;;;;;;5053510;28;20052;-89
2021/06/09 09:34:25;;;;;;;51.70;30.20;;;;;;;;;;5053839;28;20021;-88
2021/06/09 09:37:01;;;;;;;51.95;29.50;;;;;;;;;;5053659;28;20075;-88
2021/06/09 09:39:26;;;;;;;47.17;26.08;;;;;;;;;;5053726;28;20064;-89
2021/06/09 09:41:51;;;;;;;57.88;29.00;;;;;;;;;;5053238;28;20052;-89
2021/06/09 09:44:20;;;;;;;54.53;30.58;;;;;;;;;;5055155;28;20078;-88
2021/06/09 09:46:50;;;;;;;61.60;32.78;;;;;;;;;;5054028;28;20085;-89
2021/06/09 09:49:17;;;;;;;55.65;32.45;;;;;;;;;;5053894;28;20020;-88
2021/06/09 09:51:53;;;;;;;55.58;31.48;;;;;;;;;;5053954;28;20021;-88
2021/06/09 09:54:38;;;;;;;56.55;30.63;;;;;;;;;;5086552;28;20017;-88
2021/06/09 09:57:05;;;;;;;47.47;26.02;;;;;;;;;;5055021;28;20487;-88
2021/06/09 09:59:31;;;;;;;48.47;26.80;;;;;;;;;;5053429;28;20051;-89
2021/06/09 10:01:56;;;;;;;48.45;25.98;;;;;;;;;;5055044;28;20017;-89
2021/06/09 10:04:28;;;;;;;52.08;26.02;;;;;;;;;;5053715;28;20518;-89
2021/06/09 10:06:53;;;;;;;42.78;23.30;;;;;;;;;;5054993;28;20016;-88
2021/06/09 10:09:46;;;;;;;37.28;21.25;;;;;;;;;;5053086;28;20086;-88
2021/06/09 10:12:15;;;;;;;35.15;19.77;;;;;;;;;;5053645;28;20468;-88
2021/06/09 10:14:46;;;;;;;34.95;20.52;;;;;;;;;;5053157;28;20413;-89
2021/06/09 10:17:16;;;;;;;33.65;19.30;;;;;;;;;;5053438;28;20036;-89
2021/06/09 10:20:01;;;;;;;30.42;18.17;;;;;;;;;;5053226;28;20052;-88
2021/06/09 10:22:37;;;;;;;32.38;17.55;;;;;;;;;;5054633;28;20037;-88
2021/06/09 10:25:08;;;;;;;29.77;16.40;;;;;;;;;;5054224;28;20028;-89
2021/06/09 10:27:48;;;;;;;28.33;15.57;;;;;;;;;;5053274;28;20419;-88
2021/06/09 10:30:16;;;;;;;32.70;16.25;;;;;;;;;;5053127;28;20024;-88
2021/06/09 10:32:42;;;;;;;32.92;19.05;;;;;;;;;;5054386;28;20017;-89
2021/06/09 10:35:07;;;;;;;28.17;17.70;;;;;;;;;;5053040;28;20119;-88
2021/06/09 10:37:33;;;;;;;27.90;16.38;;;;;;;;;;5054740;28;20018;-89
2021/06/09 10:39:58;;;;;;;31.88;18.15;;;;;;;;;;5052878;28;20021;-89
2021/06/09 10:42:23;;;;;;;37.47;20.42;;;;;;;;;;5052952;28;20025;-89
2021/06/09 10:44:50;;;;;;;40.95;22.52;;;;;;;;;;5053123;28;20508;-89
2021/06/09 10:47:23;;;;;;;29.30;18.50;;;;;;;;;;5052887;28;20021;-89
2021/06/09 10:49:48;;;;;;;37.72;21.33;;;;;;;;;;5052994;28;20396;-88
2021/06/09 10:52:14;;;;;;;40.15;21.27;;;;;;;;;;5054202;28;20024;-87
2021/06/09 10:54:39;;;;;;;34.17;21.83;;;;;;;;;;5052388;28;20031;-89
2021/06/09 10:57:09;;;;;;;41.97;23.30;;;;;;;;;;5052248;28;20017;-89
2021/06/09 10:59:35;;;;;;;36.15;22.35;;;;;;;;;;5052114;28;20025;-89
2021/06/09 11:02:01;;;;;;;31.58;17.08;;;;;;;;;;5053874;28;20473;-89
2021/06/09 11:04:27;;;;;;;30.77;19.95;;;;;;;;;;5051867;28;21663;-88
2021/06/09 11:06:53;;;;;;;30.92;16.60;;;;;;;;;;5052135;28;20021;-88
2021/06/09 11:09:26;;;;;;;35.05;17.23;;;;;;;;;;5051791;28;20102;-88
2021/06/09 11:12:10;;;;;;;34.08;17.45;;;;;;;;;;5051896;28;20024;-88
2021/06/09 11:14:44;;;;;;;33.67;18.88;;;;;;;;;;5084665;28;20021;-88
2021/06/09 11:17:09;;;;;;;34.95;18.42;;;;;;;;;;5051841;28;20021;-88
2021/06/09 11:19:37;;;;;;;33.53;19.92;;;;;;;;;;5051640;28;20025;-88
2021/06/09 11:22:12;;;;;;;35.85;20.10;;;;;;;;;;5051289;28;20472;-89
2021/06/09 11:24:38;;;;;;;30.02;18.95;;;;;;;;;;5051433;28;20056;-88
2021/06/09 11:27:29;;;;;;;40.30;22.10;;;;;;;;;;5051856;28;20021;-88
2021/06/09 11:29:54;;;;;;;30.70;19.73;;;;;;;;;;5051338;28;20029;-87
2021/06/09 11:32:21;;;;;;;32.45;18.77;;;;;;;;;;5053093;28;20516;-88
2021/06/09 11:34:59;;;;;;;33.17;21.00;;;;;;;;;;5051496;28;20028;-88
2021/06/09 11:37:25;;;;;;;26.35;18.20;;;;;;;;;;5051708;28;20066;-89
2021/06/09 11:40:00;;;;;;;28.98;18.55;;;;;;;;;;5051532;28;20456;-88
2021/06/09 11:42:25;;;;;;;31.10;19.42;;;;;;;;;;5051521;28;20024;-89
2021/06/09 11:44:50;;;;;;;30.60;15.38;;;;;;;;;;5051442;28;20033;-89
2021/06/09 11:47:20;;;;;;;33.78;21.00;;;;;;;;;;5051253;28;20116;-87
2021/06/09 11:49:47;;;;;;;32.22;18.45;;;;;;;;;;5051400;28;20021;-89
2021/06/09 11:52:12;;;;;;;32.03;18.67;;;;;;;;;;5051242;28;20017;-88
2021/06/09 11:54:38;;;;;;;29.45;18.60;;;;;;;;;;5052714;28;20013;-88
2021/06/09 11:57:11;;;;;;;31.73;18.63;;;;;;;;;;5051270;28;20530;-88
2021/06/09 11:59:37;;;;;;;27.10;17.88;;;;;;;;;;5052520;28;20040;-89
2021/06/09 12:02:02;;;;;;;29.77;19.98;;;;;;;;;;5051379;28;20025;-88
2021/06/09 12:04:41;;;;;;;30.15;21.77;;;;;;;;;;5084720;28;20476;-89
2021/06/09 12:07:07;;;;;;;28.77;20.73;;;;;;;;;;5051074;28;20029;-88
2021/06/09 12:09:32;;;;;;;37.33;22.30;;;;;;;;;;5050486;28;20032;-89
2021/06/09 12:11:59;;;;;;;36.22;21.88;;;;;;;;;;5082370;28;20306;-89
2021/06/09 12:14:27;;;;;;;35.35;22.05;;;;;;;;;;5050632;28;20460;-89
2021/06/09 12:17:11;;;;;;;35.30;22.98;;;;;;;;;;5050771;28;20468;-89
2021/06/09 12:19:36;;;;;;;38.17;19.45;;;;;;;;;;5050906;28;20024;-89
2021/06/09 12:22:25;;;;;;;27.13;19.00;;;;;;;;;;5051036;28;20528;-89
2021/06/09 12:25:02;;;;;;;33.78;21.27;;;;;;;;;;5054108;28;20041;-89
2021/06/09 12:27:28;;;;;;;36.58;20.38;;;;;;;;;;5084534;28;20037;-89
2021/06/09 12:29:53;;;;;;;27.98;19.13;;;;;;;;;;5052030;28;20542;-89
2021/06/09 12:32:19;;;;;;;32.05;19.30;;;;;;;;;;5050931;28;20013;-89
2021/06/09 12:34:50;;;;;;;31.85;18.90;;;;;;;;;;5054675;28;20036;-89
2021/06/09 12:37:15;;;;;;;30.55;18.80;;;;;;;;;;5056115;28;20321;-89
2021/06/09 12:39:41;;;;;;;36.60;20.52;;;;;;;;;;5088662;28;20025;-89
2021/06/09 12:42:13;;;;;;;27.80;17.08;;;;;;;;;;5054196;28;20109;-89
2021/06/09 12:44:48;;;;;;;29.25;19.98;;;;;;;;;;5054580;28;20029;-88
2021/06/09 12:47:21;;;;;;;31.42;17.80;;;;;;;;;;5054471;28;20067;-89
2021/06/09 12:49:47;;;;;;;24.83;16.85;;;;;;;;;;5054773;28;20021;-89
2021/06/09 12:52:12;;;;;;;31.02;18.90;;;;;;;;;;5054745;28;20452;-89
2021/06/09 12:55:10;;;;;;;24.50;15.57;;;;;;;;;;5054571;28;20025;-89
2021/06/09 12:57:36;;;;;;;24.52;16.58;;;;;;;;;;5049173;28;20033;-89
2021/06/09 13:00:17;;;;;;;25.42;17.05;;;;;;;;;;5054448;28;20109;-89
2021/06/09 13:02:42;;;;;;;20.23;12.93;;;;;;;;;;5055683;28;20032;-88
2021/06/09 13:05:14;;;;;;;27.20;16.70;;;;;;;;;;5054498;28;20471;-89
2021/06/09 13:07:39;;;;;;;;;;;;;;;;;;5054047;28;20036;-89
2021/06/09 13:10:05;;;;;;;24.77;17.83;;;;;;;;;;5087627;28;19913;-89
2021/06/09 13:12:30;;;;;;;29.50;16.23;;;;;;;;;;5053827;28;20250;-89
2021/06/09 13:14:56;;;;;;;28.02;14.88;;;;;;;;;;5055025;28;20016;-89
2021/06/09 13:17:21;;;;;;;26.20;16.92;;;;;;;;;;5053904;28;20027;-89
2021/06/09 13:19:47;;;;;;;20.70;14.43;;;;;;;;;;5055111;28;20086;-89
2021/06/09 13:22:14;;;;;;;20.88;13.75;;;;;;;;;;5053492;28;20438;-89
2021/06/09 13:24:39;;;;;;;25.63;15.55;;;;;;;;;;5051201;28;20013;-88
2021/06/09 13:27:16;;;;;;;23.58;16.73;;;;;;;;;;5053535;28;20024;-89
2021/06/09 13:29:48;;;;;;;23.55;15.70;;;;;;;;;;5053412;28;20028;-90
2021/06/09 13:32:19;;;;;;;27.52;16.70;;;;;;;;;;5053315;28;20470;-89
2021/06/09 13:34:59;;;;;;;27.48;17.05;;;;;;;;;;5053421;28;20017;-88
2021/06/09 13:37:28;;;;;;;23.15;13.38;;;;;;;;;;5053760;28;20021;-89
2021/06/09 13:39:57;;;;;;;23.75;13.32;;;;;;;;;;5053444;28;20367;-89
2021/06/09 13:42:33;;;;;;;23.05;13.63;;;;;;;;;;5053439;28;20485;-88
2021/06/09 13:45:00;;;;;;;17.55;12.27;;;;;;;;;;5054400;28;20123;-89
2021/06/09 13:47:26;;;;;;;19.50;11.93;;;;;;;;;;5053453;28;20028;-89
2021/06/09 13:49:56;;;;;;;18.27;11.80;;;;;;;;;;5053487;28;20021;-89
2021/06/09 13:52:29;;;;;;;19.50;13.32;;;;;;;;;;5054540;28;20021;-89
2021/06/09 13:54:56;;;;;;;23.75;14.25;;;;;;;;;;5054671;28;20100;-89
2021/06/09 13:57:23;;;;;;;24.13;13.98;;;;;;;;;;5053033;28;20017;-89
2021/06/09 13:59:48;;;;;;;18.67;12.68;;;;;;;;;;5053201;28;20049;-88
2021/06/09 14:02:29;;;;;;;19.40;13.05;;;;;;;;;;5087069;28;20377;-89
2021/06/09 14:05:07;;;;;;;18.20;12.45;;;;;;;;;;5053205;28;20016;-90
2021/06/09 14:07:40;;;;;;;18.20;13.10;;;;;;;;;;5053028;28;20017;-89
2021/06/09 14:10:05;;;;;;;22.30;13.27;;;;;;;;;;5053255;28;20376;-89
2021/06/09 14:12:41;;;;;;;32.70;15.55;;;;;;;;;;5053170;28;20016;-89
2021/06/09 14:15:11;;;;;;;21.98;12.13;;;;;;;;;;5041704;28;20070;-90
2021/06/09 14:17:37;;;;;;;20.10;14.27;;;;;;;;;;5053111;28;20023;-89
2021/06/09 14:20:07;;;;;;;21.20;13.10;;;;;;;;;;5054291;28;20013;-89
2021/06/09 14:22:37;;;;;;;18.95;12.10;;;;;;;;;;5052620;28;20021;-89
2021/06/09 14:25:07;;;;;;;20.17;12.55;;;;;;;;;;5053423;28;20017;-89
2021/06/09 14:27:45;;;;;;;18.60;12.93;;;;;;;;;;5052563;28;20048;-89